sensor_id;sensor_type;location;lat;lon;timestamp;pressure;altitude;pressure_sealevel;temperature;humidity
72262;BME280;60173;52.112;8.648;2023-11-19T00:00:33;99884.03;;;8.18;100.00
72262;BME280;60173;52.112;8.648;2023-11-19T00:02:59;99890.94;;;8.24;100.00
72262;BME280;60173;52.112;8.648;2023-11-19T00:05:26;99905.06;;;8.21;100.00
72262;BME280;60173;52.112;8.648;2023-11-19T00:07:52;99896.63;;;8.41;100.00
72262;BME280;60173;52.112;8.648;2023-11-19T00:10:19;99883.63;;;8.43;100.00
72262;BME280;60173;52.112;8.648;2023-11-19T00:12:47;99900.50;;;8.35;100.00
72262;BME280;60173;52.112;8.648;2023-11-19T00:15:14;99894.25;;;8.40;100.00
72262;BME280;60173;52.112;8.648;2023-11-19T00:17:42;99886.91;;;8.40;100.00
72262;BME280;60173;52.112;8.648;2023-11-19T00:20:09;99893.78;;;8.51;100.00
72262;BME280;60173;52.112;8.648;2023-11-19T00:22:35;99889.56;;;8.59;100.00
72262;BME280;60173;52.112;8.648;2023-11-19T00:25:02;99879.72;;;8.49;100.00
72262;BME280;60173;52.112;8.648;2023-11-19T00:27:29;99879.56;;;8.59;100.00
72262;BME280;60173;52.112;8.648;2023-11-19T00:29:55;99868.53;;;8.70;100.00
72262;BME280;60173;52.112;8.648;2023-11-19T00:32:22;99868.84;;;8.68;100.00
72262;BME280;60173;52.112;8.648;2023-11-19T00:34:48;99867.91;;;8.73;100.00
72262;BME280;60173;52.112;8.648;2023-11-19T00:37:16;99863.81;;;8.75;100.00
72262;BME280;60173;52.112;8.648;2023-11-19T00:39:42;99856.00;;;8.74;100.00
72262;BME280;60173;52.112;8.648;2023-11-19T00:42:09;99851.06;;;8.76;100.00
72262;BME280;60173;52.112;8.648;2023-11-19T00:44:36;99842.84;;;8.81;100.00
72262;BME280;60173;52.112;8.648;2023-11-19T00:47:03;99844.66;;;8.86;100.00
72262;BME280;60173;52.112;8.648;2023-11-19T00:49:29;99847.66;;;8.84;100.00
72262;BME280;60173;52.112;8.648;2023-11-19T00:51:56;99851.28;;;8.93;100.00
72262;BME280;60173;52.112;8.648;2023-11-19T00:54:22;99837.72;;;8.93;100.00
72262;BME280;60173;52.112;8.648;2023-11-19T00:56:48;99835.25;;;8.83;100.00
72262;BME280;60173;52.112;8.648;2023-11-19T00:59:15;99839.25;;;8.86;100.00
72262;BME280;60173;52.112;8.648;2023-11-19T01:01:41;99835.72;;;8.85;100.00
72262;BME280;60173;52.112;8.648;2023-11-19T01:04:08;99821.69;;;8.83;100.00
72262;BME280;60173;52.112;8.648;2023-11-19T01:06:34;99822.78;;;8.82;100.00
72262;BME280;60173;52.112;8.648;2023-11-19T01:09:01;99818.38;;;8.86;100.00
72262;BME280;60173;52.112;8.648;2023-11-19T01:11:27;99823.28;;;8.84;100.00
72262;BME280;60173;52.112;8.648;2023-11-19T01:13:54;99815.38;;;8.88;100.00
72262;BME280;60173;52.112;8.648;2023-11-19T01:16:20;99809.75;;;8.84;100.00
72262;BME280;60173;52.112;8.648;2023-11-19T01:18:47;99814.28;;;8.89;100.00
72262;BME280;60173;52.112;8.648;2023-11-19T01:21:14;99817.78;;;8.89;100.00
72262;BME280;60173;52.112;8.648;2023-11-19T01:23:41;99814.38;;;8.97;100.00
72262;BME280;60173;52.112;8.648;2023-11-19T01:26:08;99798.59;;;8.99;100.00
72262;BME280;60173;52.112;8.648;2023-11-19T01:28:35;99800.50;;;8.99;100.00
72262;BME280;60173;52.112;8.648;2023-11-19T01:31:01;99804.78;;;9.27;100.00
72262;BME280;60173;52.112;8.648;2023-11-19T01:33:28;99780.31;;;9.19;100.00
72262;BME280;60173;52.112;8.648;2023-11-19T01:35:54;99783.25;;;9.09;100.00
72262;BME280;60173;52.112;8.648;2023-11-19T01:38:20;99799.50;;;9.09;100.00
72262;BME280;60173;52.112;8.648;2023-11-19T01:40:47;99770.59;;;9.18;100.00
72262;BME280;60173;52.112;8.648;2023-11-19T01:43:37;99762.19;;;9.05;100.00
72262;BME280;60173;52.112;8.648;2023-11-19T01:46:05;99762.56;;;9.13;100.00
72262;BME280;60173;52.112;8.648;2023-11-19T01:48:33;99767.63;;;9.28;100.00
72262;BME280;60173;52.112;8.648;2023-11-19T01:51:00;99768.56;;;9.23;100.00
72262;BME280;60173;52.112;8.648;2023-11-19T01:53:29;99765.44;;;9.30;100.00
72262;BME280;60173;52.112;8.648;2023-11-19T01:55:56;99771.97;;;9.29;100.00
72262;BME280;60173;52.112;8.648;2023-11-19T01:58:24;99754.94;;;9.37;100.00
72262;BME280;60173;52.112;8.648;2023-11-19T02:00:50;99750.34;;;9.38;100.00
72262;BME280;60173;52.112;8.648;2023-11-19T02:03:17;99750.66;;;9.36;100.00
72262;BME280;60173;52.112;8.648;2023-11-19T02:05:45;99748.00;;;9.45;100.00
72262;BME280;60173;52.112;8.648;2023-11-19T02:08:14;99738.97;;;9.49;100.00
72262;BME280;60173;52.112;8.648;2023-11-19T02:10:40;99730.31;;;9.47;100.00
72262;BME280;60173;52.112;8.648;2023-11-19T02:13:07;99726.03;;;9.46;100.00
72262;BME280;60173;52.112;8.648;2023-11-19T02:15:33;99736.94;;;9.55;100.00
72262;BME280;60173;52.112;8.648;2023-11-19T02:20:45;99723.44;;;9.64;100.00
72262;BME280;60173;52.112;8.648;2023-11-19T02:23:15;99723.84;;;9.57;100.00
72262;BME280;60173;52.112;8.648;2023-11-19T02:25:42;99715.03;;;9.51;100.00
72262;BME280;60173;52.112;8.648;2023-11-19T02:28:09;99712.88;;;9.62;100.00
72262;BME280;60173;52.112;8.648;2023-11-19T02:30:36;99702.47;;;9.78;100.00
72262;BME280;60173;52.112;8.648;2023-11-19T02:33:02;99726.63;;;9.66;100.00
72262;BME280;60173;52.112;8.648;2023-11-19T02:35:28;99716.31;;;9.77;100.00
72262;BME280;60173;52.112;8.648;2023-11-19T02:37:55;99714.56;;;9.72;100.00
72262;BME280;60173;52.112;8.648;2023-11-19T02:40:22;99703.59;;;9.86;100.00
72262;BME280;60173;52.112;8.648;2023-11-19T02:42:48;99695.97;;;9.88;100.00
72262;BME280;60173;52.112;8.648;2023-11-19T02:45:15;99684.94;;;9.84;100.00
72262;BME280;60173;52.112;8.648;2023-11-19T02:47:41;99678.19;;;10.04;100.00
72262;BME280;60173;52.112;8.648;2023-11-19T02:50:09;99677.97;;;10.01;100.00
72262;BME280;60173;52.112;8.648;2023-11-19T02:52:35;99677.72;;;10.11;100.00
72262;BME280;60173;52.112;8.648;2023-11-19T02:55:02;99677.34;;;10.04;100.00
72262;BME280;60173;52.112;8.648;2023-11-19T02:57:31;99679.72;;;9.96;100.00
72262;BME280;60173;52.112;8.648;2023-11-19T02:59:57;99676.38;;;10.00;100.00
72262;BME280;60173;52.112;8.648;2023-11-19T03:02:24;99681.84;;;10.08;100.00
72262;BME280;60173;52.112;8.648;2023-11-19T03:04:50;99678.34;;;10.08;100.00
72262;BME280;60173;52.112;8.648;2023-11-19T03:07:17;99680.91;;;10.13;100.00
72262;BME280;60173;52.112;8.648;2023-11-19T03:09:43;99676.91;;;10.10;100.00
72262;BME280;60173;52.112;8.648;2023-11-19T03:12:10;99671.38;;;10.24;100.00
72262;BME280;60173;52.112;8.648;2023-11-19T03:14:36;99679.81;;;10.23;100.00
72262;BME280;60173;52.112;8.648;2023-11-19T03:17:03;99670.41;;;10.20;100.00
72262;BME280;60173;52.112;8.648;2023-11-19T03:19:30;99664.53;;;10.27;100.00
72262;BME280;60173;52.112;8.648;2023-11-19T03:21:56;99661.00;;;10.26;100.00
72262;BME280;60173;52.112;8.648;2023-11-19T03:24:23;99652.06;;;10.26;100.00
72262;BME280;60173;52.112;8.648;2023-11-19T03:26:49;99653.22;;;10.33;100.00
72262;BME280;60173;52.112;8.648;2023-11-19T03:29:16;99653.69;;;10.35;100.00
72262;BME280;60173;52.112;8.648;2023-11-19T03:31:42;99644.63;;;10.49;100.00
72262;BME280;60173;52.112;8.648;2023-11-19T03:34:09;99654.53;;;10.45;100.00
72262;BME280;60173;52.112;8.648;2023-11-19T03:36:35;99640.00;;;10.58;100.00
72262;BME280;60173;52.112;8.648;2023-11-19T03:39:02;99630.59;;;10.64;100.00
72262;BME280;60173;52.112;8.648;2023-11-19T03:41:28;99635.22;;;10.63;100.00
72262;BME280;60173;52.112;8.648;2023-11-19T03:44:06;99639.72;;;10.68;100.00
72262;BME280;60173;52.112;8.648;2023-11-19T03:46:32;99649.59;;;10.81;100.00
72262;BME280;60173;52.112;8.648;2023-11-19T03:48:59;99651.88;;;10.79;100.00
72262;BME280;60173;52.112;8.648;2023-11-19T03:51:26;99641.47;;;10.81;100.00
72262;BME280;60173;52.112;8.648;2023-11-19T03:53:52;99646.25;;;10.93;100.00
72262;BME280;60173;52.112;8.648;2023-11-19T03:56:19;99657.31;;;10.88;100.00
72262;BME280;60173;52.112;8.648;2023-11-19T03:58:45;99675.19;;;10.98;100.00
72262;BME280;60173;52.112;8.648;2023-11-19T04:01:12;99661.59;;;11.15;100.00
72262;BME280;60173;52.112;8.648;2023-11-19T04:03:38;99668.31;;;11.18;100.00
72262;BME280;60173;52.112;8.648;2023-11-19T04:06:16;99681.75;;;11.14;100.00
72262;BME280;60173;52.112;8.648;2023-11-19T04:08:43;99663.03;;;11.13;100.00
72262;BME280;60173;52.112;8.648;2023-11-19T04:11:10;99670.06;;;11.14;100.00
72262;BME280;60173;52.112;8.648;2023-11-19T04:13:37;99662.22;;;11.29;100.00
72262;BME280;60173;52.112;8.648;2023-11-19T04:16:03;99665.44;;;11.31;100.00
72262;BME280;60173;52.112;8.648;2023-11-19T04:18:30;99664.78;;;11.26;100.00
72262;BME280;60173;52.112;8.648;2023-11-19T04:20:56;99660.47;;;11.25;100.00
72262;BME280;60173;52.112;8.648;2023-11-19T04:23:24;99650.72;;;11.32;100.00
72262;BME280;60173;52.112;8.648;2023-11-19T04:25:50;99648.16;;;11.27;100.00
72262;BME280;60173;52.112;8.648;2023-11-19T04:28:17;99650.06;;;11.27;100.00
72262;BME280;60173;52.112;8.648;2023-11-19T04:30:43;99647.19;;;11.41;100.00
72262;BME280;60173;52.112;8.648;2023-11-19T04:33:10;99643.66;;;11.40;100.00
72262;BME280;60173;52.112;8.648;2023-11-19T04:35:36;99643.69;;;11.23;100.00
72262;BME280;60173;52.112;8.648;2023-11-19T04:38:03;99641.88;;;11.44;100.00
72262;BME280;60173;52.112;8.648;2023-11-19T04:40:29;99639.28;;;11.57;100.00
72262;BME280;60173;52.112;8.648;2023-11-19T04:42:56;99644.13;;;11.42;100.00
72262;BME280;60173;52.112;8.648;2023-11-19T04:45:22;99644.97;;;11.34;100.00
72262;BME280;60173;52.112;8.648;2023-11-19T04:47:49;99641.59;;;11.28;100.00
72262;BME280;60173;52.112;8.648;2023-11-19T04:50:15;99635.69;;;11.26;100.00
72262;BME280;60173;52.112;8.648;2023-11-19T04:52:42;99626.72;;;11.35;100.00
72262;BME280;60173;52.112;8.648;2023-11-19T04:55:08;99633.41;;;11.46;100.00
72262;BME280;60173;52.112;8.648;2023-11-19T04:57:34;99618.41;;;11.31;100.00
72262;BME280;60173;52.112;8.648;2023-11-19T05:00:01;99624.84;;;11.09;100.00
72262;BME280;60173;52.112;8.648;2023-11-19T05:02:42;99619.06;;;11.19;100.00
72262;BME280;60173;52.112;8.648;2023-11-19T05:05:09;99611.38;;;11.21;100.00
72262;BME280;60173;52.112;8.648;2023-11-19T05:07:36;99614.44;;;11.20;100.00
72262;BME280;60173;52.112;8.648;2023-11-19T05:10:02;99618.09;;;11.32;100.00
72262;BME280;60173;52.112;8.648;2023-11-19T05:12:29;99601.28;;;11.30;100.00
72262;BME280;60173;52.112;8.648;2023-11-19T05:14:55;99621.63;;;11.24;100.00
72262;BME280;60173;52.112;8.648;2023-11-19T05:17:22;99621.13;;;11.22;100.00
72262;BME280;60173;52.112;8.648;2023-11-19T05:19:48;99631.53;;;11.20;100.00
72262;BME280;60173;52.112;8.648;2023-11-19T05:22:15;99627.84;;;11.25;100.00
72262;BME280;60173;52.112;8.648;2023-11-19T05:24:41;99631.41;;;11.17;100.00
72262;BME280;60173;52.112;8.648;2023-11-19T05:27:08;99615.69;;;11.22;100.00
72262;BME280;60173;52.112;8.648;2023-11-19T05:29:35;99628.34;;;11.18;100.00
72262;BME280;60173;52.112;8.648;2023-11-19T05:32:01;99617.81;;;11.08;100.00
72262;BME280;60173;52.112;8.648;2023-11-19T05:34:28;99636.19;;;11.20;100.00
72262;BME280;60173;52.112;8.648;2023-11-19T05:36:54;99637.00;;;11.03;100.00
72262;BME280;60173;52.112;8.648;2023-11-19T05:39:21;99624.06;;;11.00;100.00
72262;BME280;60173;52.112;8.648;2023-11-19T05:41:47;99638.28;;;10.79;100.00
72262;BME280;60173;52.112;8.648;2023-11-19T05:44:14;99625.00;;;10.69;100.00
72262;BME280;60173;52.112;8.648;2023-11-19T05:46:40;99624.53;;;10.67;100.00
72262;BME280;60173;52.112;8.648;2023-11-19T05:49:07;99619.44;;;10.74;100.00
72262;BME280;60173;52.112;8.648;2023-11-19T05:51:37;99622.94;;;10.75;100.00
72262;BME280;60173;52.112;8.648;2023-11-19T05:54:03;99626.13;;;10.77;100.00
72262;BME280;60173;52.112;8.648;2023-11-19T05:56:30;99645.00;;;10.73;100.00
72262;BME280;60173;52.112;8.648;2023-11-19T05:58:56;99645.00;;;10.73;100.00
72262;BME280;60173;52.112;8.648;2023-11-19T06:01:23;99642.28;;;10.65;100.00
72262;BME280;60173;52.112;8.648;2023-11-19T06:03:49;99631.22;;;10.61;100.00
72262;BME280;60173;52.112;8.648;2023-11-19T06:06:17;99649.56;;;10.47;100.00
72262;BME280;60173;52.112;8.648;2023-11-19T06:08:43;99646.41;;;10.45;100.00
72262;BME280;60173;52.112;8.648;2023-11-19T06:11:10;99653.91;;;10.48;100.00
72262;BME280;60173;52.112;8.648;2023-11-19T06:13:37;99647.22;;;10.54;100.00
72262;BME280;60173;52.112;8.648;2023-11-19T06:16:03;99650.53;;;10.42;100.00
72262;BME280;60173;52.112;8.648;2023-11-19T06:18:30;99650.22;;;10.44;100.00
72262;BME280;60173;52.112;8.648;2023-11-19T06:20:56;99657.91;;;10.50;100.00
72262;BME280;60173;52.112;8.648;2023-11-19T06:23:23;99666.84;;;10.51;100.00
72262;BME280;60173;52.112;8.648;2023-11-19T06:25:49;99662.22;;;10.51;100.00
72262;BME280;60173;52.112;8.648;2023-11-19T06:28:16;99661.09;;;10.61;100.00
72262;BME280;60173;52.112;8.648;2023-11-19T06:30:42;99655.34;;;10.54;100.00
72262;BME280;60173;52.112;8.648;2023-11-19T06:33:14;99652.75;;;10.31;100.00
72262;BME280;60173;52.112;8.648;2023-11-19T06:35:41;99656.41;;;10.35;100.00
72262;BME280;60173;52.112;8.648;2023-11-19T06:38:07;99656.34;;;10.18;100.00
72262;BME280;60173;52.112;8.648;2023-11-19T06:40:34;99664.56;;;10.44;100.00
72262;BME280;60173;52.112;8.648;2023-11-19T06:43:01;99670.19;;;10.48;100.00
72262;BME280;60173;52.112;8.648;2023-11-19T06:45:27;99675.59;;;10.39;100.00
72262;BME280;60173;52.112;8.648;2023-11-19T06:47:54;99679.13;;;10.39;100.00
72262;BME280;60173;52.112;8.648;2023-11-19T06:50:21;99680.00;;;10.26;100.00
72262;BME280;60173;52.112;8.648;2023-11-19T06:52:47;99677.75;;;10.19;100.00
72262;BME280;60173;52.112;8.648;2023-11-19T06:55:14;99678.88;;;10.18;100.00
72262;BME280;60173;52.112;8.648;2023-11-19T06:57:40;99674.88;;;10.16;100.00
72262;BME280;60173;52.112;8.648;2023-11-19T07:00:07;99686.69;;;10.20;100.00
72262;BME280;60173;52.112;8.648;2023-11-19T07:02:34;99689.88;;;10.22;100.00
72262;BME280;60173;52.112;8.648;2023-11-19T07:05:00;99701.69;;;10.26;100.00
72262;BME280;60173;52.112;8.648;2023-11-19T07:07:27;99694.69;;;10.25;100.00
72262;BME280;60173;52.112;8.648;2023-11-19T07:09:53;99707.69;;;10.37;100.00
72262;BME280;60173;52.112;8.648;2023-11-19T07:12:20;99708.22;;;10.16;100.00
72262;BME280;60173;52.112;8.648;2023-11-19T07:14:46;99694.38;;;10.27;99.80
72262;BME280;60173;52.112;8.648;2023-11-19T07:17:13;99692.31;;;10.32;98.87
72262;BME280;60173;52.112;8.648;2023-11-19T07:19:39;99697.97;;;10.45;97.31
72262;BME280;60173;52.112;8.648;2023-11-19T07:22:06;99698.78;;;10.54;96.52
72262;BME280;60173;52.112;8.648;2023-11-19T07:24:32;99704.41;;;10.66;96.24
72262;BME280;60173;52.112;8.648;2023-11-19T07:26:59;99705.19;;;10.67;96.38
72262;BME280;60173;52.112;8.648;2023-11-19T07:29:25;99702.03;;;10.73;96.40
72262;BME280;60173;52.112;8.648;2023-11-19T07:31:55;99717.06;;;10.88;95.52
72262;BME280;60173;52.112;8.648;2023-11-19T07:34:23;99717.69;;;10.85;95.88
72262;BME280;60173;52.112;8.648;2023-11-19T07:36:50;99712.59;;;10.92;94.87
72262;BME280;60173;52.112;8.648;2023-11-19T07:39:16;99714.16;;;10.93;94.96
72262;BME280;60173;52.112;8.648;2023-11-19T07:41:42;99715.31;;;10.92;93.83
72262;BME280;60173;52.112;8.648;2023-11-19T07:44:09;99715.78;;;10.85;93.67
72262;BME280;60173;52.112;8.648;2023-11-19T07:46:35;99725.84;;;10.76;95.14
72262;BME280;60173;52.112;8.648;2023-11-19T07:49:02;99717.88;;;10.89;94.39
72262;BME280;60173;52.112;8.648;2023-11-19T07:51:28;99719.59;;;10.93;94.30
72262;BME280;60173;52.112;8.648;2023-11-19T07:53:55;99712.44;;;10.97;93.41
72262;BME280;60173;52.112;8.648;2023-11-19T07:56:21;99722.97;;;10.99;93.83
72262;BME280;60173;52.112;8.648;2023-11-19T07:58:48;99729.84;;;10.96;93.68
72262;BME280;60173;52.112;8.648;2023-11-19T08:01:15;99723.94;;;11.03;93.72
72262;BME280;60173;52.112;8.648;2023-11-19T08:03:41;99740.38;;;10.89;92.79
72262;BME280;60173;52.112;8.648;2023-11-19T08:06:24;99733.53;;;11.00;92.57
72262;BME280;60173;52.112;8.648;2023-11-19T08:08:51;99730.19;;;11.03;92.39
72262;BME280;60173;52.112;8.648;2023-11-19T08:11:17;99750.31;;;10.94;92.80
72262;BME280;60173;52.112;8.648;2023-11-19T08:13:44;99745.66;;;10.85;93.34
72262;BME280;60173;52.112;8.648;2023-11-19T08:16:10;99743.72;;;10.77;92.96
72262;BME280;60173;52.112;8.648;2023-11-19T08:18:37;99750.63;;;11.01;92.64
72262;BME280;60173;52.112;8.648;2023-11-19T08:21:04;99752.41;;;10.97;92.39
72262;BME280;60173;52.112;8.648;2023-11-19T08:23:30;99764.72;;;11.12;92.88
72262;BME280;60173;52.112;8.648;2023-11-19T08:25:57;99760.06;;;11.03;92.43
72262;BME280;60173;52.112;8.648;2023-11-19T08:28:23;99750.97;;;11.25;91.82
72262;BME280;60173;52.112;8.648;2023-11-19T08:30:50;99760.88;;;11.39;90.26
72262;BME280;60173;52.112;8.648;2023-11-19T08:33:16;99754.94;;;11.37;89.54
72262;BME280;60173;52.112;8.648;2023-11-19T08:35:43;99771.75;;;11.21;90.63
72262;BME280;60173;52.112;8.648;2023-11-19T08:38:09;99770.78;;;11.08;90.73
72262;BME280;60173;52.112;8.648;2023-11-19T08:40:35;99772.72;;;11.17;90.87
72262;BME280;60173;52.112;8.648;2023-11-19T08:43:02;99764.88;;;11.32;90.60
72262;BME280;60173;52.112;8.648;2023-11-19T08:45:28;99757.84;;;11.40;89.68
72262;BME280;60173;52.112;8.648;2023-11-19T08:47:55;99769.38;;;11.46;89.48
72262;BME280;60173;52.112;8.648;2023-11-19T08:50:22;99786.63;;;11.50;89.43
72262;BME280;60173;52.112;8.648;2023-11-19T08:52:48;99776.09;;;11.66;89.14
72262;BME280;60173;52.112;8.648;2023-11-19T08:55:15;99772.22;;;11.75;88.63
72262;BME280;60173;52.112;8.648;2023-11-19T08:57:41;99778.31;;;11.72;88.26
72262;BME280;60173;52.112;8.648;2023-11-19T09:00:08;99790.13;;;11.68;88.61
72262;BME280;60173;52.112;8.648;2023-11-19T09:02:35;99792.06;;;11.50;89.85
72262;BME280;60173;52.112;8.648;2023-11-19T09:05:02;99781.19;;;11.50;89.80
72262;BME280;60173;52.112;8.648;2023-11-19T09:07:28;99783.41;;;11.65;90.13
72262;BME280;60173;52.112;8.648;2023-11-19T09:09:55;99783.91;;;11.59;90.34
72262;BME280;60173;52.112;8.648;2023-11-19T09:12:21;99779.13;;;11.56;91.02
72262;BME280;60173;52.112;8.648;2023-11-19T09:14:48;99791.75;;;11.77;89.94
72262;BME280;60173;52.112;8.648;2023-11-19T09:17:14;99788.38;;;12.07;88.66
72262;BME280;60173;52.112;8.648;2023-11-19T09:19:41;99794.44;;;12.12;87.77
72262;BME280;60173;52.112;8.648;2023-11-19T09:22:07;99786.13;;;11.83;87.70
72262;BME280;60173;52.112;8.648;2023-11-19T09:24:34;99785.97;;;11.70;89.13
72262;BME280;60173;52.112;8.648;2023-11-19T09:27:00;99790.78;;;11.73;88.26
72262;BME280;60173;52.112;8.648;2023-11-19T09:29:27;99790.94;;;11.94;88.62
72262;BME280;60173;52.112;8.648;2023-11-19T09:31:53;99802.94;;;12.02;87.45
72262;BME280;60173;52.112;8.648;2023-11-19T09:34:19;99793.59;;;12.12;86.57
72262;BME280;60173;52.112;8.648;2023-11-19T09:36:46;99792.53;;;12.04;86.35
72262;BME280;60173;52.112;8.648;2023-11-19T09:39:12;99789.19;;;11.72;88.35
72262;BME280;60173;52.112;8.648;2023-11-19T09:41:39;99791.75;;;11.77;89.38
72262;BME280;60173;52.112;8.648;2023-11-19T09:44:05;99802.16;;;11.58;90.15
72262;BME280;60173;52.112;8.648;2023-11-19T09:46:32;99795.44;;;11.47;90.03
72262;BME280;60173;52.112;8.648;2023-11-19T09:48:59;99805.66;;;11.50;90.47
72262;BME280;60173;52.112;8.648;2023-11-19T09:51:26;99810.31;;;11.49;91.37
72262;BME280;60173;52.112;8.648;2023-11-19T09:53:54;99803.59;;;11.47;91.49
72262;BME280;60173;52.112;8.648;2023-11-19T09:56:20;99808.72;;;11.57;90.82
72262;BME280;60173;52.112;8.648;2023-11-19T09:58:47;99810.47;;;11.62;90.91
72262;BME280;60173;52.112;8.648;2023-11-19T10:01:15;99811.09;;;11.59;90.64
72262;BME280;60173;52.112;8.648;2023-11-19T10:03:46;99808.72;;;11.57;91.19
72262;BME280;60173;52.112;8.648;2023-11-19T10:06:14;99804.88;;;11.41;92.73
72262;BME280;60173;52.112;8.648;2023-11-19T10:08:42;99807.75;;;11.53;93.93
72262;BME280;60173;52.112;8.648;2023-11-19T10:11:09;99813.53;;;11.43;93.18
72262;BME280;60173;52.112;8.648;2023-11-19T10:13:36;99807.72;;;11.79;92.22
72262;BME280;60173;52.112;8.648;2023-11-19T10:16:07;99808.22;;;11.81;91.41
72262;BME280;60173;52.112;8.648;2023-11-19T10:18:34;99813.03;;;11.67;92.12
72262;BME280;60173;52.112;8.648;2023-11-19T10:21:00;99805.03;;;11.70;92.09
72262;BME280;60173;52.112;8.648;2023-11-19T10:23:27;99803.88;;;12.06;90.92
72262;BME280;60173;52.112;8.648;2023-11-19T10:25:53;99806.31;;;11.90;89.57
72262;BME280;60173;52.112;8.648;2023-11-19T10:28:20;99807.72;;;12.05;89.46
72262;BME280;60173;52.112;8.648;2023-11-19T10:30:48;99801.81;;;11.94;89.00
72262;BME280;60173;52.112;8.648;2023-11-19T10:33:14;99793.94;;;12.10;88.98
72262;BME280;60173;52.112;8.648;2023-11-19T10:35:57;99791.25;;;11.93;88.54
72262;BME280;60173;52.112;8.648;2023-11-19T10:38:26;99792.31;;;12.27;87.24
72262;BME280;60173;52.112;8.648;2023-11-19T10:40:53;99784.22;;;12.48;85.96
72262;BME280;60173;52.112;8.648;2023-11-19T10:43:20;99801.59;;;12.64;85.37
72262;BME280;60173;52.112;8.648;2023-11-19T10:45:48;99792.56;;;12.42;84.60
72262;BME280;60173;52.112;8.648;2023-11-19T10:48:15;99790.94;;;12.50;85.16
72262;BME280;60173;52.112;8.648;2023-11-19T10:50:44;99793.75;;;12.62;83.60
72262;BME280;60173;52.112;8.648;2023-11-19T10:53:11;99795.41;;;12.46;83.38
72262;BME280;60173;52.112;8.648;2023-11-19T10:55:38;99804.41;;;12.38;83.20
72262;BME280;60173;52.112;8.648;2023-11-19T10:58:06;99789.38;;;12.32;83.63
72262;BME280;60173;52.112;8.648;2023-11-19T11:03:25;99788.88;;;12.47;82.84
72262;BME280;60173;52.112;8.648;2023-11-19T11:05:53;99785.19;;;12.43;82.61
72262;BME280;60173;52.112;8.648;2023-11-19T11:08:20;99785.25;;;12.64;82.83
72262;BME280;60173;52.112;8.648;2023-11-19T11:10:53;99784.44;;;12.63;82.67
72262;BME280;60173;52.112;8.648;2023-11-19T11:13:23;99775.00;;;12.23;83.39
72262;BME280;60173;52.112;8.648;2023-11-19T11:15:51;99767.94;;;12.30;83.33
72262;BME280;60173;52.112;8.648;2023-11-19T11:18:17;99771.16;;;12.24;83.96
72262;BME280;60173;52.112;8.648;2023-11-19T11:20:44;99761.28;;;12.10;84.96
72262;BME280;60173;52.112;8.648;2023-11-19T11:28:46;99763.91;;;12.36;84.61
72262;BME280;60173;52.112;8.648;2023-11-19T11:37:20;99758.03;;;12.26;83.48
72262;BME280;60173;52.112;8.648;2023-11-19T11:39:47;99751.66;;;12.21;84.35
72262;BME280;60173;52.112;8.648;2023-11-19T11:45:03;99765.16;;;12.48;85.91
72262;BME280;60173;52.112;8.648;2023-11-19T11:50:17;99749.53;;;12.27;85.85
72262;BME280;60173;52.112;8.648;2023-11-19T11:55:57;99757.78;;;12.48;84.81
72262;BME280;60173;52.112;8.648;2023-11-19T11:58:29;99760.69;;;12.73;83.16
72262;BME280;60173;52.112;8.648;2023-11-19T12:00:58;99749.78;;;13.02;81.88
72262;BME280;60173;52.112;8.648;2023-11-19T12:03:28;99750.34;;;12.87;82.24
72262;BME280;60173;52.112;8.648;2023-11-19T12:05:55;99756.78;;;12.82;83.11
72262;BME280;60173;52.112;8.648;2023-11-19T12:08:26;99752.16;;;12.53;85.68
72262;BME280;60173;52.112;8.648;2023-11-19T12:10:54;99758.00;;;12.34;86.34
72262;BME280;60173;52.112;8.648;2023-11-19T12:13:21;99755.63;;;12.62;86.19
72262;BME280;60173;52.112;8.648;2023-11-19T12:18:24;99752.50;;;12.43;87.02
72262;BME280;60173;52.112;8.648;2023-11-19T12:20:53;99744.97;;;12.10;87.36
72262;BME280;60173;52.112;8.648;2023-11-19T12:23:19;99738.84;;;12.13;87.60
72262;BME280;60173;52.112;8.648;2023-11-19T12:25:46;99751.97;;;12.11;86.61
72262;BME280;60173;52.112;8.648;2023-11-19T12:28:14;99747.84;;;12.05;87.72
72262;BME280;60173;52.112;8.648;2023-11-19T12:30:41;99740.97;;;11.99;88.35
72262;BME280;60173;52.112;8.648;2023-11-19T12:33:08;99744.34;;;11.96;88.98
72262;BME280;60173;52.112;8.648;2023-11-19T12:35:39;99741.75;;;12.08;88.57
72262;BME280;60173;52.112;8.648;2023-11-19T12:38:06;99744.19;;;12.39;87.87
72262;BME280;60173;52.112;8.648;2023-11-19T12:40:32;99742.72;;;12.12;88.29
72262;BME280;60173;52.112;8.648;2023-11-19T12:42:59;99733.59;;;12.08;88.62
72262;BME280;60173;52.112;8.648;2023-11-19T12:45:35;99733.69;;;12.20;88.36
72262;BME280;60173;52.112;8.648;2023-11-19T12:48:05;99728.69;;;12.31;87.88
72262;BME280;60173;52.112;8.648;2023-11-19T12:50:52;99728.06;;;12.26;87.29
72262;BME280;60173;52.112;8.648;2023-11-19T12:53:19;99717.19;;;12.26;87.39
72262;BME280;60173;52.112;8.648;2023-11-19T12:55:45;99717.34;;;12.20;87.75
72262;BME280;60173;52.112;8.648;2023-11-19T12:58:31;99713.66;;;12.25;85.91
72262;BME280;60173;52.112;8.648;2023-11-19T13:01:05;99710.31;;;12.19;85.78
72262;BME280;60173;52.112;8.648;2023-11-19T13:03:33;99708.44;;;12.41;85.67
72262;BME280;60173;52.112;8.648;2023-11-19T13:08:39;99712.75;;;12.51;83.63
72262;BME280;60173;52.112;8.648;2023-11-19T13:11:06;99708.13;;;12.13;84.54
72262;BME280;60173;52.112;8.648;2023-11-19T13:13:32;99709.91;;;12.00;85.20
72262;BME280;60173;52.112;8.648;2023-11-19T13:16:03;99716.44;;;12.46;85.59
72262;BME280;60173;52.112;8.648;2023-11-19T13:18:30;99704.34;;;12.85;84.69
72262;BME280;60173;52.112;8.648;2023-11-19T13:21:00;99715.03;;;12.70;85.04
72262;BME280;60173;52.112;8.648;2023-11-19T13:23:26;99713.81;;;12.88;84.03
72262;BME280;60173;52.112;8.648;2023-11-19T13:25:53;99714.41;;;12.64;84.09
72262;BME280;60173;52.112;8.648;2023-11-19T13:28:19;99720.22;;;12.62;84.11